Time;durP1;ratioP1;P1;durP2;ratioP2;P2;SDS_P1;SDS_P2;PMS_P1;PMS_P2;Temp;Humidity;BMP_temperature;BMP_pressure;BME280_temperature;BME280_humidity;BME280_pressure;Samples;Min_cycle;Max_cycle;Signal;HPM_P1;HPM_P2
2023/06/11 00:02:06;;;;;;;11.50;2.85;;;;;;;;;;5031771;28;20033;-73
2023/06/11 00:04:34;;;;;;;9.20;2.70;;;;;;;;;;5038444;28;20032;-73
2023/06/11 00:07:01;;;;;;;12.13;2.40;;;;;;;;;;5031282;28;20389;-74
2023/06/11 00:09:28;;;;;;;15.43;2.42;;;;;;;;;;5031062;28;20120;-74
2023/06/11 00:11:54;;;;;;;12.30;2.83;;;;;;;;;;5030533;28;20049;-72
2023/06/11 00:14:21;;;;;;;10.80;2.47;;;;;;;;;;5031169;28;20024;-73
2023/06/11 00:16:47;;;;;;;13.98;2.80;;;;;;;;;;5031544;28;20072;-73
2023/06/11 00:19:13;;;;;;;9.25;2.60;;;;;;;;;;5030458;28;20505;-74
2023/06/11 00:21:43;;;;;;;12.30;2.33;;;;;;;;;;5030977;28;20695;-73
2023/06/11 00:24:14;;;;;;;10.65;2.33;;;;;;;;;;5031014;28;20117;-72
2023/06/11 00:26:43;;;;;;;14.63;2.38;;;;;;;;;;5031044;28;20028;-73
2023/06/11 00:29:09;;;;;;;9.18;2.78;;;;;;;;;;5031037;28;20060;-73
2023/06/11 00:31:35;;;;;;;9.70;2.50;;;;;;;;;;5030542;28;20033;-73
2023/06/11 00:34:02;;;;;;;13.32;2.67;;;;;;;;;;5030312;28;20079;-73
2023/06/11 00:36:29;;;;;;;8.88;2.15;;;;;;;;;;5031118;28;20032;-73
2023/06/11 00:38:55;;;;;;;8.52;2.45;;;;;;;;;;5031412;28;20379;-72
2023/06/11 00:41:24;;;;;;;14.50;2.60;;;;;;;;;;5032426;28;20033;-73
2023/06/11 00:43:52;;;;;;;12.45;2.90;;;;;;;;;;5031079;28;20500;-73
2023/06/11 00:46:21;;;;;;;19.70;2.97;;;;;;;;;;5031635;28;20388;-71
2023/06/11 00:48:48;;;;;;;11.80;2.40;;;;;;;;;;5030864;28;20102;-73
2023/06/11 00:51:15;;;;;;;7.55;2.50;;;;;;;;;;5030758;28;20053;-73
2023/06/11 00:53:41;;;;;;;15.50;2.55;;;;;;;;;;5030165;28;20023;-73
2023/06/11 00:56:07;;;;;;;9.55;2.15;;;;;;;;;;5030269;28;20021;-72
2023/06/11 00:58:34;;;;;;;7.38;2.40;;;;;;;;;;5033960;28;20036;-74
2023/06/11 01:01:01;;;;;;;9.90;2.83;;;;;;;;;;5033769;28;20057;-73
2023/06/11 01:03:28;;;;;;;11.13;2.72;;;;;;;;;;5031077;28;20029;-72
2023/06/11 01:06:05;;;;;;;13.10;2.78;;;;;;;;;;5034026;28;20426;-72
2023/06/11 01:08:34;;;;;;;6.75;2.28;;;;;;;;;;5032974;28;20025;-73
2023/06/11 01:11:01;;;;;;;12.20;3.00;;;;;;;;;;5032878;28;20031;-72
2023/06/11 01:13:28;;;;;;;7.00;2.35;;;;;;;;;;5031351;28;20017;-74
2023/06/11 01:15:58;;;;;;;7.13;2.53;;;;;;;;;;5034441;28;20395;-73
2023/06/11 01:18:28;;;;;;;9.18;2.70;;;;;;;;;;5035044;28;20032;-73
2023/06/11 01:20:59;;;;;;;13.48;3.05;;;;;;;;;;5036892;28;20026;-73
2023/06/11 01:23:41;;;;;;;11.27;2.50;;;;;;;;;;5032150;28;20049;-74
2023/06/11 01:26:18;;;;;;;7.53;2.40;;;;;;;;;;5031563;28;20017;-73
2023/06/11 01:28:50;;;;;;;13.15;2.80;;;;;;;;;;5030243;28;20021;-72
2023/06/11 01:31:16;;;;;;;10.23;2.60;;;;;;;;;;5033209;28;20075;-74
2023/06/11 01:33:43;;;;;;;7.15;2.22;;;;;;;;;;5033856;28;20025;-72
2023/06/11 01:36:10;;;;;;;12.88;2.42;;;;;;;;;;5033987;28;20135;-74
2023/06/11 01:38:42;;;;;;;10.68;3.80;;;;;;;;;;5035345;28;20026;-72
2023/06/11 01:41:16;;;;;;;10.98;2.95;;;;;;;;;;5035293;28;20124;-73
2023/06/11 01:43:42;;;;;;;13.20;3.20;;;;;;;;;;5035045;28;20025;-74
2023/06/11 01:46:08;;;;;;;8.10;2.45;;;;;;;;;;5034529;28;20033;-71
2023/06/11 01:48:35;;;;;;;12.65;2.50;;;;;;;;;;5034291;28;20030;-73
2023/06/11 01:51:01;;;;;;;8.07;2.35;;;;;;;;;;5031524;28;20026;-72
2023/06/11 01:53:27;;;;;;;10.05;2.53;;;;;;;;;;5033301;28;20040;-72
2023/06/11 01:55:56;;;;;;;10.15;2.42;;;;;;;;;;5033667;28;20026;-72
2023/06/11 01:58:22;;;;;;;7.88;2.55;;;;;;;;;;5033859;28;20119;-73
2023/06/11 02:00:48;;;;;;;9.23;2.70;;;;;;;;;;5033973;28;20030;-72
2023/06/11 02:03:15;;;;;;;8.45;2.72;;;;;;;;;;5035437;28;20205;-73
2023/06/11 02:05:42;;;;;;;10.50;2.88;;;;;;;;;;5035083;28;20036;-74
2023/06/11 02:08:08;;;;;;;12.75;2.60;;;;;;;;;;5034990;28;20076;-73
2023/06/11 02:10:34;;;;;;;7.63;2.20;;;;;;;;;;5035051;28;20352;-72
2023/06/11 02:13:00;;;;;;;9.57;2.75;;;;;;;;;;5034924;28;20068;-71
2023/06/11 02:15:26;;;;;;;12.23;2.63;;;;;;;;;;5035323;28;20061;-72
2023/06/11 02:17:52;;;;;;;7.25;2.67;;;;;;;;;;5035343;28;20022;-73
2023/06/11 02:20:18;;;;;;;13.25;3.17;;;;;;;;;;5034567;28;20022;-72
2023/06/11 02:22:44;;;;;;;8.40;2.60;;;;;;;;;;5034352;28;20463;-73
2023/06/11 02:25:10;;;;;;;10.30;2.55;;;;;;;;;;5032661;28;20034;-73
2023/06/11 02:27:37;;;;;;;9.43;2.58;;;;;;;;;;5038472;28;20372;-74
2023/06/11 02:30:03;;;;;;;9.63;2.50;;;;;;;;;;5037578;28;20033;-72
2023/06/11 02:32:29;;;;;;;13.15;2.75;;;;;;;;;;5036060;28;20033;-72
2023/06/11 02:34:55;;;;;;;15.43;2.65;;;;;;;;;;5034669;28;20026;-73
2023/06/11 02:37:21;;;;;;;9.40;2.75;;;;;;;;;;5034156;28;20505;-73
2023/06/11 02:39:47;;;;;;;6.90;2.30;;;;;;;;;;5032354;28;20033;-73
2023/06/11 02:42:13;;;;;;;5.13;1.98;;;;;;;;;;5033022;28;20096;-74
2023/06/11 02:44:39;;;;;;;15.00;3.03;;;;;;;;;;5033611;28;20037;-73
2023/06/11 02:47:06;;;;;;;8.07;2.58;;;;;;;;;;5033917;28;20025;-73
2023/06/11 02:49:32;;;;;;;9.07;2.92;;;;;;;;;;5033611;28;20029;-73
2023/06/11 02:51:58;;;;;;;11.82;2.90;;;;;;;;;;5033497;28;20607;-73
2023/06/11 02:54:23;;;;;;;7.30;2.55;;;;;;;;;;5034255;28;20034;-72
2023/06/11 02:56:49;;;;;;;9.88;2.90;;;;;;;;;;5035556;28;20030;-73
2023/06/11 02:59:15;;;;;;;17.55;2.80;;;;;;;;;;5035920;28;20088;-73
2023/06/11 03:01:41;;;;;;;14.98;3.40;;;;;;;;;;5033885;28;20494;-73
2023/06/11 03:04:07;;;;;;;11.35;3.05;;;;;;;;;;5032741;28;20026;-73
2023/06/11 03:06:34;;;;;;;9.45;2.90;;;;;;;;;;5033501;28;20053;-73
2023/06/11 03:09:00;;;;;;;8.43;2.40;;;;;;;;;;5033572;28;20406;-72
2023/06/11 03:11:26;;;;;;;7.43;3.17;;;;;;;;;;5033632;28;20069;-74
2023/06/11 03:13:52;;;;;;;9.65;3.22;;;;;;;;;;5033340;28;20545;-72
2023/06/11 03:16:18;;;;;;;13.88;3.83;;;;;;;;;;5033477;28;20025;-74
2023/06/11 03:18:44;;;;;;;10.82;2.70;;;;;;;;;;5033596;28;20029;-73
2023/06/11 03:21:11;;;;;;;13.88;3.15;;;;;;;;;;5033397;28;20025;-73
2023/06/11 03:23:37;;;;;;;9.35;2.92;;;;;;;;;;5033355;28;20029;-74
2023/06/11 03:26:03;;;;;;;18.13;4.40;;;;;;;;;;5033238;28;20017;-72
2023/06/11 03:28:29;;;;;;;18.40;3.90;;;;;;;;;;5033415;28;20419;-73
2023/06/11 03:30:55;;;;;;;9.95;3.70;;;;;;;;;;5033275;28;20026;-73
2023/06/11 03:33:21;;;;;;;10.18;2.83;;;;;;;;;;5032946;28;20450;-73
2023/06/11 03:35:47;;;;;;;13.88;3.75;;;;;;;;;;5033145;28;20256;-73
2023/06/11 03:38:13;;;;;;;10.07;4.03;;;;;;;;;;5032834;28;20049;-73
2023/06/11 03:40:39;;;;;;;24.90;5.72;;;;;;;;;;5031638;28;20049;-74
2023/06/11 03:43:05;;;;;;;12.70;4.80;;;;;;;;;;5032920;28;20438;-73
2023/06/11 03:45:31;;;;;;;13.40;4.78;;;;;;;;;;5033693;28;20036;-73
2023/06/11 03:47:57;;;;;;;19.40;4.35;;;;;;;;;;5032113;28;20387;-73
2023/06/11 03:50:24;;;;;;;21.00;3.65;;;;;;;;;;5032171;28;20032;-74
2023/06/11 03:52:50;;;;;;;14.93;5.38;;;;;;;;;;5031812;28;20025;-72
2023/06/11 03:55:16;;;;;;;20.95;5.03;;;;;;;;;;5032714;28;20083;-73
2023/06/11 03:57:42;;;;;;;13.02;4.85;;;;;;;;;;5031263;28;20037;-73
2023/06/11 04:00:09;;;;;;;13.73;4.03;;;;;;;;;;5032791;28;20035;-73
2023/06/11 04:02:38;;;;;;;15.93;4.20;;;;;;;;;;5032309;28;20021;-72
2023/06/11 04:05:04;;;;;;;18.42;5.60;;;;;;;;;;5033179;28;20053;-72
2023/06/11 04:07:30;;;;;;;11.13;4.60;;;;;;;;;;5032544;28;20076;-73
2023/06/11 04:09:56;;;;;;;26.63;10.70;;;;;;;;;;5032760;28;20033;-72
2023/06/11 04:12:22;;;;;;;16.42;5.32;;;;;;;;;;5032601;28;20025;-72
2023/06/11 04:14:48;;;;;;;14.85;7.22;;;;;;;;;;5032743;28;20036;-72
2023/06/11 04:17:14;;;;;;;19.05;8.68;;;;;;;;;;5032450;28;20104;-74
2023/06/11 04:19:40;;;;;;;19.98;9.80;;;;;;;;;;5032008;28;20033;-75
2023/06/11 04:22:06;;;;;;;14.98;4.97;;;;;;;;;;5031906;28;20032;-72
2023/06/11 04:24:32;;;;;;;13.73;4.60;;;;;;;;;;5030808;28;20483;-72
2023/06/11 04:26:58;;;;;;;14.95;4.15;;;;;;;;;;5032201;28;20022;-73
2023/06/11 04:29:29;;;;;;;20.52;8.43;;;;;;;;;;5032188;28;20079;-73
2023/06/11 04:31:56;;;;;;;10.27;3.60;;;;;;;;;;5031740;28;20068;-72
2023/06/11 04:34:28;;;;;;;13.27;4.75;;;;;;;;;;5032077;28;20432;-71
2023/06/11 04:36:54;;;;;;;8.95;3.40;;;;;;;;;;5031600;28;20088;-74
2023/06/11 04:39:21;;;;;;;13.45;4.00;;;;;;;;;;5031698;28;20041;-71
2023/06/11 04:41:47;;;;;;;9.45;3.80;;;;;;;;;;5031600;28;20055;-72
2023/06/11 04:44:13;;;;;;;10.40;3.80;;;;;;;;;;5032244;28;20096;-73
2023/06/11 04:46:40;;;;;;;14.82;3.90;;;;;;;;;;5031934;28;20101;-72
2023/06/11 04:49:07;;;;;;;16.67;4.65;;;;;;;;;;5031682;28;20021;-74
2023/06/11 04:51:33;;;;;;;15.60;3.55;;;;;;;;;;5030143;28;20025;-73
2023/06/11 04:54:07;;;;;;;12.50;4.35;;;;;;;;;;5031291;28;20133;-71
2023/06/11 04:56:36;;;;;;;12.60;4.25;;;;;;;;;;5030136;28;20032;-75
2023/06/11 04:59:03;;;;;;;10.23;4.00;;;;;;;;;;5039271;28;20461;-75
2023/06/11 05:01:32;;;;;;;17.58;4.10;;;;;;;;;;5032905;28;20379;-73
2023/06/11 05:03:58;;;;;;;15.45;5.82;;;;;;;;;;5030573;28;20026;-75
2023/06/11 05:06:24;;;;;;;15.02;4.57;;;;;;;;;;5030962;28;20478;-75
2023/06/11 05:08:52;;;;;;;11.38;3.40;;;;;;;;;;5034273;28;20025;-71
2023/06/11 05:11:18;;;;;;;23.35;4.28;;;;;;;;;;5031334;28;20025;-71
2023/06/11 05:13:44;;;;;;;12.88;3.67;;;;;;;;;;5035366;28;20033;-74
2023/06/11 05:16:10;;;;;;;13.35;5.47;;;;;;;;;;5036257;28;20034;-73
2023/06/11 05:18:36;;;;;;;8.40;3.80;;;;;;;;;;5030157;28;20482;-72
2023/06/11 05:21:02;;;;;;;10.38;3.65;;;;;;;;;;5031111;28;20041;-74
2023/06/11 05:23:30;;;;;;;13.50;3.35;;;;;;;;;;5033162;28;20080;-74
2023/06/11 05:26:12;;;;;;;9.00;3.30;;;;;;;;;;5036103;28;20013;-72
2023/06/11 05:28:38;;;;;;;17.25;4.18;;;;;;;;;;5030175;28;20076;-71
2023/06/11 05:31:05;;;;;;;10.40;3.35;;;;;;;;;;5032185;28;20483;-72
2023/06/11 05:33:31;;;;;;;12.10;3.65;;;;;;;;;;5035932;28;20030;-72
2023/06/11 05:35:58;;;;;;;14.13;3.90;;;;;;;;;;5032343;28;20029;-72
2023/06/11 05:38:24;;;;;;;12.02;3.55;;;;;;;;;;5034112;28;20079;-72
2023/06/11 05:40:50;;;;;;;13.52;3.78;;;;;;;;;;5034251;28;20036;-71
2023/06/11 05:43:16;;;;;;;11.13;3.30;;;;;;;;;;5033184;28;20029;-71
2023/06/11 05:45:49;;;;;;;13.35;3.97;;;;;;;;;;5028506;28;20669;-70
2023/06/11 05:48:15;;;;;;;11.93;3.30;;;;;;;;;;5034020;28;20105;-75
2023/06/11 05:50:42;;;;;;;11.93;3.15;;;;;;;;;;5039846;28;20113;-74
2023/06/11 05:53:09;;;;;;;14.48;3.63;;;;;;;;;;5035591;28;20056;-73
2023/06/11 05:55:35;;;;;;;10.35;3.80;;;;;;;;;;5033858;28;20028;-76
2023/06/11 05:58:02;;;;;;;7.93;3.25;;;;;;;;;;5036527;28;20116;-74
2023/06/11 06:00:28;;;;;;;14.40;3.45;;;;;;;;;;5033100;28;20441;-74
2023/06/11 06:02:54;;;;;;;12.60;3.60;;;;;;;;;;5033235;28;20025;-73
2023/06/11 06:05:20;;;;;;;11.35;3.22;;;;;;;;;;5031424;28;20102;-73
2023/06/11 06:07:46;;;;;;;10.38;3.60;;;;;;;;;;5030884;28;20030;-73
2023/06/11 06:10:12;;;;;;;13.52;3.28;;;;;;;;;;5031530;28;20029;-72
2023/06/11 06:12:38;;;;;;;16.70;3.13;;;;;;;;;;5030800;28;20025;-74
2023/06/11 06:15:04;;;;;;;10.45;3.03;;;;;;;;;;5031005;28;20026;-72
2023/06/11 06:17:30;;;;;;;10.07;3.10;;;;;;;;;;5034836;28;20025;-72
2023/06/11 06:19:56;;;;;;;15.50;4.15;;;;;;;;;;5035063;28;20434;-72
2023/06/11 06:22:22;;;;;;;7.65;3.35;;;;;;;;;;5036379;28;20100;-71
2023/06/11 06:24:48;;;;;;;8.57;2.90;;;;;;;;;;5035035;28;20022;-72
2023/06/11 06:27:14;;;;;;;11.18;3.17;;;;;;;;;;5034585;28;20479;-72
2023/06/11 06:29:40;;;;;;;11.70;3.35;;;;;;;;;;5034565;28;20030;-72
2023/06/11 06:32:07;;;;;;;11.63;3.30;;;;;;;;;;5034394;28;20021;-71
2023/06/11 06:34:33;;;;;;;8.70;3.30;;;;;;;;;;5034809;28;20056;-71
2023/06/11 06:37:00;;;;;;;19.35;3.92;;;;;;;;;;5036532;28;20025;-75
2023/06/11 06:39:26;;;;;;;9.10;3.67;;;;;;;;;;5036653;28;20086;-73
2023/06/11 06:41:52;;;;;;;10.95;3.30;;;;;;;;;;5050433;28;20100;-74
2023/06/11 06:44:18;;;;;;;15.32;3.90;;;;;;;;;;5055015;28;20021;-72
2023/06/11 06:46:44;;;;;;;10.05;3.45;;;;;;;;;;5054547;28;20024;-73
2023/06/11 06:49:10;;;;;;;9.55;3.28;;;;;;;;;;5054206;28;20429;-72
2023/06/11 06:51:37;;;;;;;9.50;3.40;;;;;;;;;;5056364;28;20378;-73
2023/06/11 06:54:03;;;;;;;12.40;3.50;;;;;;;;;;5054543;28;20048;-71
2023/06/11 06:56:29;;;;;;;8.20;3.45;;;;;;;;;;5054573;28;20025;-71
2023/06/11 06:58:55;;;;;;;12.90;3.15;;;;;;;;;;5056406;28;20032;-72
2023/06/11 07:01:21;;;;;;;10.48;3.28;;;;;;;;;;5055789;28;20033;-72
2023/06/11 07:03:47;;;;;;;9.88;4.07;;;;;;;;;;5051329;28;20067;-72
2023/06/11 07:06:13;;;;;;;9.85;3.22;;;;;;;;;;5051971;28;20378;-72
2023/06/11 07:08:39;;;;;;;11.27;3.38;;;;;;;;;;5052934;28;20063;-72
2023/06/11 07:11:05;;;;;;;14.63;3.40;;;;;;;;;;5052509;28;20017;-72
2023/06/11 07:13:31;;;;;;;17.05;3.67;;;;;;;;;;5052446;28;20119;-72
2023/06/11 07:15:57;;;;;;;11.23;3.30;;;;;;;;;;5053179;28;20056;-73
2023/06/11 07:18:25;;;;;;;14.90;3.60;;;;;;;;;;5053818;28;20536;-72
2023/06/11 07:20:51;;;;;;;5.75;3.10;;;;;;;;;;5053207;28;20013;-73
2023/06/11 07:23:17;;;;;;;14.13;3.58;;;;;;;;;;5052574;28;20021;-72
2023/06/11 07:25:43;;;;;;;15.40;3.58;;;;;;;;;;5053064;28;20020;-72
2023/06/11 07:28:10;;;;;;;16.80;3.53;;;;;;;;;;5052678;28;20021;-71
2023/06/11 07:30:36;;;;;;;10.80;3.30;;;;;;;;;;5052393;28;20027;-71
2023/06/11 07:33:02;;;;;;;14.77;3.30;;;;;;;;;;5051255;28;20029;-72
2023/06/11 07:35:28;;;;;;;15.52;3.65;;;;;;;;;;5052287;28;20394;-72
2023/06/11 07:37:54;;;;;;;10.13;3.58;;;;;;;;;;5052019;28;20029;-72
2023/06/11 07:40:21;;;;;;;12.75;4.40;;;;;;;;;;5052103;28;20069;-71
2023/06/11 07:42:47;;;;;;;10.27;3.40;;;;;;;;;;5049873;28;20541;-72
2023/06/11 07:45:14;;;;;;;5.13;2.80;;;;;;;;;;5051579;28;20479;-73
2023/06/11 07:47:41;;;;;;;12.73;3.58;;;;;;;;;;5051841;28;20017;-72
2023/06/11 07:50:07;;;;;;;8.32;3.20;;;;;;;;;;5052907;28;20025;-72
2023/06/11 07:52:33;;;;;;;10.82;3.00;;;;;;;;;;5051316;28;20028;-74
2023/06/11 07:54:59;;;;;;;9.93;3.22;;;;;;;;;;5048252;28;20565;-73
2023/06/11 07:57:25;;;;;;;13.63;3.92;;;;;;;;;;5052053;28;20028;-72
2023/06/11 07:59:51;;;;;;;11.50;3.55;;;;;;;;;;5042930;28;20128;-72
2023/06/11 08:02:17;;;;;;;9.65;3.20;;;;;;;;;;5032369;28;20476;-74
2023/06/11 08:04:43;;;;;;;8.75;3.40;;;;;;;;;;5033242;28;20028;-73
2023/06/11 08:07:10;;;;;;;10.35;3.40;;;;;;;;;;5032319;28;20033;-70
2023/06/11 08:09:36;;;;;;;9.68;3.45;;;;;;;;;;5032128;28;20120;-73
2023/06/11 08:12:02;;;;;;;11.50;3.35;;;;;;;;;;5031906;28;20529;-72
2023/06/11 08:14:29;;;;;;;8.90;3.63;;;;;;;;;;5030297;28;20034;-71
2023/06/11 08:16:55;;;;;;;11.65;3.35;;;;;;;;;;5031710;28;20097;-72
2023/06/11 08:19:21;;;;;;;5.00;3.13;;;;;;;;;;5031102;28;20032;-73
2023/06/11 08:21:47;;;;;;;8.38;2.90;;;;;;;;;;5030440;28;20036;-72
2023/06/11 08:24:13;;;;;;;10.70;3.78;;;;;;;;;;5030928;28;20021;-74
2023/06/11 08:26:39;;;;;;;16.65;3.58;;;;;;;;;;5030974;28;20096;-73
2023/06/11 08:29:05;;;;;;;14.05;3.42;;;;;;;;;;5031046;28;20473;-72
2023/06/11 08:31:32;;;;;;;12.88;3.55;;;;;;;;;;5031003;28;20051;-73
2023/06/11 08:33:58;;;;;;;8.50;4.28;;;;;;;;;;5030485;28;20365;-72
2023/06/11 08:36:26;;;;;;;9.60;3.33;;;;;;;;;;5012262;28;20033;-73
2023/06/11 08:38:52;;;;;;;21.42;3.70;;;;;;;;;;5010950;28;20088;-73
2023/06/11 08:41:18;;;;;;;12.18;3.80;;;;;;;;;;5030662;28;20546;-72
2023/06/11 08:43:44;;;;;;;11.18;3.50;;;;;;;;;;5032568;28;20026;-75
2023/06/11 08:46:14;;;;;;;9.98;3.80;;;;;;;;;;5032489;28;20105;-72
2023/06/11 08:48:42;;;;;;;17.48;3.80;;;;;;;;;;5034508;28;20056;-73
2023/06/11 08:51:10;;;;;;;12.27;3.22;;;;;;;;;;5034101;28;20487;-74
2023/06/11 08:53:36;;;;;;;12.63;3.50;;;;;;;;;;5030322;28;20641;-73
2023/06/11 08:56:02;;;;;;;12.25;3.88;;;;;;;;;;5030666;28;20088;-72
2023/06/11 08:58:30;;;;;;;8.50;3.10;;;;;;;;;;5030531;28;20582;-72
2023/06/11 09:00:56;;;;;;;16.83;3.88;;;;;;;;;;5029560;28;20057;-72
2023/06/11 09:03:22;;;;;;;7.95;3.60;;;;;;;;;;5030657;28;20049;-74
2023/06/11 09:05:49;;;;;;;11.23;3.58;;;;;;;;;;5030843;28;20076;-73
2023/06/11 09:08:15;;;;;;;11.90;3.28;;;;;;;;;;5029972;28;20029;-72
2023/06/11 09:10:48;;;;;;;16.73;3.58;;;;;;;;;;5031421;28;20053;-73
2023/06/11 09:13:15;;;;;;;9.13;3.90;;;;;;;;;;5031551;28;20025;-71
2023/06/11 09:15:52;;;;;;;10.55;3.13;;;;;;;;;;5030766;28;20026;-73
2023/06/11 09:18:25;;;;;;;23.48;3.45;;;;;;;;;;5032219;28;20064;-73
2023/06/11 09:20:51;;;;;;;7.72;3.03;;;;;;;;;;5032953;28;20022;-72
2023/06/11 09:23:24;;;;;;;12.50;3.55;;;;;;;;;;5031823;28;20052;-71
2023/06/11 09:25:50;;;;;;;13.98;3.85;;;;;;;;;;5032682;28;20025;-73
2023/06/11 09:28:16;;;;;;;13.15;3.53;;;;;;;;;;5032501;28;20055;-73
2023/06/11 09:30:42;;;;;;;7.82;3.50;;;;;;;;;;5032849;28;20029;-72
2023/06/11 09:33:17;;;;;;;5.43;3.10;;;;;;;;;;5031781;28;20009;-74
2023/06/11 09:35:46;;;;;;;13.10;3.40;;;;;;;;;;5031960;28;20027;-72
2023/06/11 09:38:15;;;;;;;10.60;3.63;;;;;;;;;;5031869;28;20022;-73
2023/06/11 09:40:45;;;;;;;7.80;3.35;;;;;;;;;;5030944;28;20037;-74
2023/06/11 09:43:11;;;;;;;13.63;3.85;;;;;;;;;;5032811;28;20029;-78
2023/06/11 09:45:37;;;;;;;7.47;3.20;;;;;;;;;;5030114;28;20033;-74
2023/06/11 09:48:04;;;;;;;9.52;3.40;;;;;;;;;;5031958;28;20041;-72
2023/06/11 09:50:31;;;;;;;13.48;4.00;;;;;;;;;;5031592;28;20021;-75
2023/06/11 09:52:59;;;;;;;11.90;3.90;;;;;;;;;;5033207;28;20053;-73
2023/06/11 09:55:26;;;;;;;7.75;3.67;;;;;;;;;;5035494;28;20491;-73
2023/06/11 09:57:54;;;;;;;19.33;4.18;;;;;;;;;;5035036;28;20033;-74
2023/06/11 10:00:20;;;;;;;7.97;3.50;;;;;;;;;;5033516;28;20474;-73
2023/06/11 10:02:46;;;;;;;10.20;3.78;;;;;;;;;;5033582;28;20022;-73
2023/06/11 10:05:12;;;;;;;12.02;3.40;;;;;;;;;;5034148;28;20475;-72
2023/06/11 10:07:51;;;;;;;8.63;3.45;;;;;;;;;;5033974;28;20479;-73
2023/06/11 10:10:20;;;;;;;8.73;3.55;;;;;;;;;;5033771;28;20095;-72
2023/06/11 10:12:50;;;;;;;6.57;3.55;;;;;;;;;;5032894;28;20499;-74
2023/06/11 10:15:17;;;;;;;9.45;4.07;;;;;;;;;;5033756;28;20026;-73
2023/06/11 10:17:50;;;;;;;15.23;3.42;;;;;;;;;;5034635;28;20166;-74
2023/06/11 10:20:20;;;;;;;9.38;3.22;;;;;;;;;;5034508;28;20028;-72
2023/06/11 10:22:46;;;;;;;6.65;3.38;;;;;;;;;;5034374;28;20022;-75
2023/06/11 10:25:13;;;;;;;11.95;3.67;;;;;;;;;;5034581;28;20514;-74
2023/06/11 10:27:41;;;;;;;13.55;5.15;;;;;;;;;;5034607;28;20104;-74
2023/06/11 10:30:08;;;;;;;9.18;3.42;;;;;;;;;;5034635;28;20060;-73
2023/06/11 10:32:34;;;;;;;9.55;3.20;;;;;;;;;;5034296;28;20030;-73
2023/06/11 10:35:03;;;;;;;8.30;3.95;;;;;;;;;;5034526;28;20025;-74
2023/06/11 10:37:29;;;;;;;10.85;3.72;;;;;;;;;;5034440;28;20028;-73
2023/06/11 10:39:55;;;;;;;8.45;3.15;;;;;;;;;;5033201;28;20101;-72
2023/06/11 10:42:24;;;;;;;9.30;3.85;;;;;;;;;;5035205;28;20025;-74
2023/06/11 10:44:51;;;;;;;18.23;4.60;;;;;;;;;;5033392;28;20024;-72
2023/06/11 10:47:17;;;;;;;13.35;3.90;;;;;;;;;;5034694;28;20017;-72
2023/06/11 10:49:43;;;;;;;6.38;3.22;;;;;;;;;;5035224;28;20536;-72
2023/06/11 10:52:09;;;;;;;12.15;3.20;;;;;;;;;;5033930;28;20025;-72
2023/06/11 10:54:36;;;;;;;11.18;3.45;;;;;;;;;;5034101;28;20080;-72
2023/06/11 10:57:03;;;;;;;10.90;3.70;;;;;;;;;;5033823;28;20613;-73
2023/06/11 10:59:31;;;;;;;13.25;3.60;;;;;;;;;;5033823;28;20040;-73
2023/06/11 11:01:57;;;;;;;9.55;3.33;;;;;;;;;;5033608;28;20025;-74
2023/06/11 11:04:23;;;;;;;7.05;3.30;;;;;;;;;;5034177;28;20027;-73
2023/06/11 11:07:07;;;;;;;18.38;4.30;;;;;;;;;;5034294;28;20053;-74
2023/06/11 11:09:33;;;;;;;6.35;3.30;;;;;;;;;;5033484;28;20555;-74
2023/06/11 11:11:59;;;;;;;6.90;3.22;;;;;;;;;;5033357;28;20029;-73
2023/06/11 11:14:29;;;;;;;10.02;3.47;;;;;;;;;;5033605;28;20163;-74
2023/06/11 11:16:55;;;;;;;9.38;3.67;;;;;;;;;;5033369;28;20459;-72
2023/06/11 11:19:24;;;;;;;6.18;3.30;;;;;;;;;;5033509;28;20479;-74
2023/06/11 11:21:51;;;;;;;9.05;3.67;;;;;;;;;;5033341;28;20420;-73
2023/06/11 11:24:17;;;;;;;11.40;4.07;;;;;;;;;;5031651;28;20026;-73
2023/06/11 11:26:44;;;;;;;17.52;5.90;;;;;;;;;;5032521;28;20028;-73
2023/06/11 11:29:10;;;;;;;11.40;4.70;;;;;;;;;;5032246;28;20104;-73
2023/06/11 11:31:36;;;;;;;8.13;3.50;;;;;;;;;;5035825;28;20053;-74
2023/06/11 11:34:03;;;;;;;5.18;3.17;;;;;;;;;;5030173;28;20521;-73
2023/06/11 11:36:29;;;;;;;12.90;3.42;;;;;;;;;;5032356;28;20033;-74
2023/06/11 11:38:55;;;;;;;10.35;4.03;;;;;;;;;;5030895;28;20033;-73
2023/06/11 11:41:24;;;;;;;11.10;3.35;;;;;;;;;;5031887;28;20018;-74
2023/06/11 11:43:50;;;;;;;11.25;2.95;;;;;;;;;;5032020;28;20367;-73
2023/06/11 11:46:20;;;;;;;5.93;3.40;;;;;;;;;;5032708;28;20076;-74
2023/06/11 11:48:46;;;;;;;6.00;3.08;;;;;;;;;;5031820;28;20029;-73
2023/06/11 11:51:15;;;;;;;8.77;3.30;;;;;;;;;;5031935;28;20123;-74
2023/06/11 11:53:41;;;;;;;10.77;3.35;;;;;;;;;;5030859;28;20087;-73
2023/06/11 11:56:07;;;;;;;10.90;2.97;;;;;;;;;;5032021;28;20028;-73
2023/06/11 11:58:37;;;;;;;9.43;3.20;;;;;;;;;;5033209;28;20386;-74
2023/06/11 12:01:04;;;;;;;8.93;3.13;;;;;;;;;;5033640;28;20080;-72
2023/06/11 12:03:31;;;;;;;9.13;3.20;;;;;;;;;;5032340;28;20375;-74
2023/06/11 12:05:58;;;;;;;9.13;3.30;;;;;;;;;;5032722;28;20400;-74
2023/06/11 12:08:25;;;;;;;10.57;3.42;;;;;;;;;;5032760;28;20094;-73
2023/06/11 12:10:51;;;;;;;8.13;2.80;;;;;;;;;;5033864;28;20025;-73
2023/06/11 12:13:18;;;;;;;11.10;3.10;;;;;;;;;;5032656;28;20022;-74
2023/06/11 12:15:44;;;;;;;8.98;2.78;;;;;;;;;;5034781;28;20018;-74
2023/06/11 12:18:10;;;;;;;14.48;3.17;;;;;;;;;;5035903;28;20073;-72
2023/06/11 12:20:36;;;;;;;10.73;3.08;;;;;;;;;;5034434;28;20021;-72
2023/06/11 12:23:03;;;;;;;9.23;3.03;;;;;;;;;;5033394;28;20051;-74
2023/06/11 12:25:32;;;;;;;9.05;3.67;;;;;;;;;;5034385;28;20497;-73
2023/06/11 12:27:58;;;;;;;7.50;3.33;;;;;;;;;;5034811;28;20487;-72
2023/06/11 12:30:25;;;;;;;8.25;3.50;;;;;;;;;;5032488;28;20037;-73
2023/06/11 12:32:52;;;;;;;10.00;3.22;;;;;;;;;;5033476;28;20045;-74
2023/06/11 12:35:18;;;;;;;7.90;3.22;;;;;;;;;;5032727;28;20021;-72
2023/06/11 12:37:45;;;;;;;11.35;4.50;;;;;;;;;;5032741;28;20028;-73
2023/06/11 12:40:12;;;;;;;15.20;6.20;;;;;;;;;;5032315;28;20021;-73
2023/06/11 12:42:38;;;;;;;7.57;3.55;;;;;;;;;;5032234;28;20033;-72
2023/06/11 12:45:04;;;;;;;5.75;2.92;;;;;;;;;;5032608;28;20025;-72
2023/06/11 12:47:30;;;;;;;9.40;3.35;;;;;;;;;;5033259;28;20029;-72
2023/06/11 12:49:56;;;;;;;8.90;3.63;;;;;;;;;;5032021;28;20026;-75
2023/06/11 12:52:23;;;;;;;5.57;2.83;;;;;;;;;;5031518;28;20372;-72
2023/06/11 12:54:49;;;;;;;12.43;3.05;;;;;;;;;;5031712;28;20029;-73
2023/06/11 12:57:15;;;;;;;6.18;3.08;;;;;;;;;;5031678;28;20040;-73
2023/06/11 12:59:42;;;;;;;7.95;3.45;;;;;;;;;;5031786;28;20032;-73
2023/06/11 13:02:10;;;;;;;10.23;4.05;;;;;;;;;;5031469;28;20061;-72
2023/06/11 13:04:36;;;;;;;15.60;3.05;;;;;;;;;;5031880;28;20475;-72
2023/06/11 13:07:02;;;;;;;6.20;3.25;;;;;;;;;;5030494;28;20219;-73
2023/06/11 13:09:28;;;;;;;9.45;3.17;;;;;;;;;;5031564;28;20494;-73
2023/06/11 13:11:54;;;;;;;7.95;3.20;;;;;;;;;;5031186;28;20036;-74
2023/06/11 13:14:21;;;;;;;8.10;3.35;;;;;;;;;;5032263;28;20035;-75
2023/06/11 13:16:48;;;;;;;6.97;3.30;;;;;;;;;;5032286;28;20391;-73
2023/06/11 13:19:14;;;;;;;9.05;3.50;;;;;;;;;;5031790;28;20079;-74
2023/06/11 13:21:40;;;;;;;6.90;3.15;;;;;;;;;;5032166;28;20049;-76
2023/06/11 13:24:06;;;;;;;9.32;2.97;;;;;;;;;;5031574;28;20025;-72
2023/06/11 13:26:32;;;;;;;6.38;3.15;;;;;;;;;;5033669;28;20118;-73
2023/06/11 13:28:58;;;;;;;11.70;3.40;;;;;;;;;;5035424;28;20086;-72
2023/06/11 13:31:24;;;;;;;6.65;3.15;;;;;;;;;;5035569;28;20105;-73
2023/06/11 13:33:51;;;;;;;9.00;3.10;;;;;;;;;;5035277;28;20026;-72
2023/06/11 13:36:17;;;;;;;11.80;3.70;;;;;;;;;;5035658;28;20025;-74
2023/06/11 13:38:43;;;;;;;12.55;4.07;;;;;;;;;;5034959;28;20041;-74
2023/06/11 13:41:09;;;;;;;11.93;3.30;;;;;;;;;;5035469;28;20364;-74
2023/06/11 13:43:35;;;;;;;6.60;2.88;;;;;;;;;;5035070;28;20414;-74
2023/06/11 13:46:01;;;;;;;15.40;3.20;;;;;;;;;;5035124;28;20021;-73
2023/06/11 13:48:27;;;;;;;10.32;3.15;;;;;;;;;;5036191;28;20483;-74
2023/06/11 13:50:55;;;;;;;6.70;2.90;;;;;;;;;;5037331;28;20407;-74
2023/06/11 13:53:21;;;;;;;9.32;3.35;;;;;;;;;;5035853;28;20026;-75
2023/06/11 13:55:47;;;;;;;4.75;3.20;;;;;;;;;;5034738;28;20017;-77
2023/06/11 13:58:14;;;;;;;10.35;3.22;;;;;;;;;;5035521;28;20483;-75
2023/06/11 14:00:41;;;;;;;9.60;3.13;;;;;;;;;;5033906;28;20025;-77
2023/06/11 14:03:07;;;;;;;15.60;4.53;;;;;;;;;;5036563;28;20022;-78
2023/06/11 14:05:33;;;;;;;8.02;2.88;;;;;;;;;;5035847;28;20026;-77
2023/06/11 14:07:59;;;;;;;9.48;2.75;;;;;;;;;;5035188;28;20136;-72
2023/06/11 14:10:28;;;;;;;8.27;3.08;;;;;;;;;;5034621;28;20033;-73
2023/06/11 14:12:54;;;;;;;17.30;7.25;;;;;;;;;;5034717;28;20025;-74
2023/06/11 14:15:21;;;;;;;16.73;3.63;;;;;;;;;;5034948;28;20497;-72
2023/06/11 14:17:47;;;;;;;14.80;3.17;;;;;;;;;;5034564;28;20029;-73
2023/06/11 14:20:14;;;;;;;10.77;3.88;;;;;;;;;;5034440;28;20021;-74
2023/06/11 14:22:40;;;;;;;13.25;3.90;;;;;;;;;;5036095;28;20478;-72
2023/06/11 14:25:06;;;;;;;9.95;3.60;;;;;;;;;;5036000;28;20027;-73
2023/06/11 14:27:32;;;;;;;5.57;3.40;;;;;;;;;;5035713;28;20364;-73
2023/06/11 14:30:00;;;;;;;11.25;2.65;;;;;;;;;;5035768;28;20029;-73
2023/06/11 14:32:28;;;;;;;9.70;2.65;;;;;;;;;;5036079;28;20053;-74
2023/06/11 14:34:55;;;;;;;13.48;3.83;;;;;;;;;;5035482;28;20021;-72